Time;durP1;ratioP1;P1;durP2;ratioP2;P2;SDS_P1;SDS_P2;PMS_P1;PMS_P2;Temp;Humidity;BMP_temperature;BMP_pressure;BME280_temperature;BME280_humidity;BME280_pressure;Samples;Min_cycle;Max_cycle;Signal;HPM_P1;HPM_P2
2024/04/18 00:02:24;;;;;;;17.00;13.97;;;4.80;1.00;;;;;;5527233;25;20502;-60
2024/04/18 00:04:51;;;;;;;18.83;15.63;;;4.80;1.00;;;;;;5526990;25;20683;-60
2024/04/18 00:07:20;;;;;;;19.67;15.57;;;4.80;1.00;;;;;;5526335;25;20876;-61
2024/04/18 00:09:46;;;;;;;18.97;15.13;;;4.90;1.00;;;;;;5525794;25;20818;-60
2024/04/18 00:12:15;;;;;;;17.23;15.33;;;4.90;1.00;;;;;;5525055;25;20507;-61
2024/04/18 00:14:41;;;;;;;17.80;14.80;;;4.90;1.00;;;;;;5526130;25;20694;-60
2024/04/18 00:17:13;;;;;;;17.40;14.30;;;4.90;4.60;;;;;;5525003;25;20466;-61
2024/04/18 00:19:39;;;;;;;16.77;14.97;;;4.90;1.00;;;;;;5525355;25;20396;-61
2024/04/18 00:22:08;;;;;;;15.43;13.43;;;5.00;1.00;;;;;;5526416;25;20400;-60
2024/04/18 00:24:34;;;;;;;15.13;13.47;;;4.90;1.00;;;;;;5526367;25;20777;-61
2024/04/18 00:27:03;;;;;;;15.70;13.67;;;4.80;1.00;;;;;;5525906;25;20455;-60
2024/04/18 00:29:29;;;;;;;17.87;13.33;;;4.70;1.00;;;;;;5526107;25;20455;-60
2024/04/18 00:31:58;;;;;;;18.90;12.80;;;4.80;1.00;;;;;;5526574;25;20470;-59
2024/04/18 00:34:27;;;;;;;16.77;13.70;;;4.80;1.00;;;;;;5529443;25;20430;-60
2024/04/18 00:36:56;;;;;;;16.17;14.07;;;4.80;1.00;;;;;;5528554;25;20524;-60
2024/04/18 00:39:22;;;;;;;16.83;14.53;;;4.70;1.00;;;;;;5529018;25;20450;-60
2024/04/18 00:41:51;;;;;;;16.60;14.60;;;4.70;1.00;;;;;;5528964;25;20804;-60
2024/04/18 00:44:17;;;;;;;18.93;16.93;;;4.60;1.00;;;;;;5529029;25;20392;-60
2024/04/18 00:46:48;;;;;;;16.07;14.30;;;4.70;1.00;;;;;;5528555;25;20400;-60
2024/04/18 00:49:15;;;;;;;17.70;15.07;;;4.70;1.00;;;;;;5528705;25;20511;-59
2024/04/18 00:51:47;;;;;;;18.13;15.47;;;4.70;1.00;;;;;;5528348;25;20467;-60
2024/04/18 00:54:14;;;;;;;21.50;16.23;;;4.70;1.00;;;;;;5528955;25;20455;-60
2024/04/18 00:56:45;;;;;;;19.33;15.50;;;4.80;1.00;;;;;;5528618;25;20894;-60
2024/04/18 00:59:14;;;;;;;20.47;16.40;;;4.70;1.00;;;;;;5528700;25;20923;-60
2024/04/18 01:01:44;;;;;;;17.03;15.23;;;4.70;1.00;;;;;;5528700;25;20889;-60
2024/04/18 01:04:10;;;;;;;22.43;15.90;;;4.60;1.00;;;;;;5529038;25;20455;-60
2024/04/18 01:06:40;;;;;;;18.47;15.10;;;4.60;1.00;;;;;;5528514;25;20396;-60
2024/04/18 01:09:09;;;;;;;20.33;17.13;;;4.60;1.00;;;;;;5528150;25;20384;-60
2024/04/18 01:11:38;;;;;;;18.40;16.33;;;4.60;1.40;;;;;;5528355;25;20448;-60
2024/04/18 01:14:08;;;;;;;21.07;18.30;;;4.70;1.00;;;;;;5528517;25;20525;-61
2024/04/18 01:16:37;;;;;;;19.67;16.90;;;4.70;1.50;;;;;;5528431;25;20562;-60
2024/04/18 01:19:04;;;;;;;19.40;16.80;;;4.70;15.40;;;;;;5528244;25;20748;-59
2024/04/18 01:21:33;;;;;;;21.10;17.87;;;4.70;25.30;;;;;;5528704;25;20454;-60
2024/04/18 01:23:59;;;;;;;18.47;15.07;;;4.70;26.30;;;;;;5531968;25;20393;-60
2024/04/18 01:27:21;;;;;;;21.33;16.87;;;4.70;41.70;;;;;;5531905;25;20888;-60
2024/04/18 01:29:50;;;;;;;21.97;17.83;;;4.70;63.50;;;;;;5531933;25;20403;-60
2024/04/18 01:32:18;;;;;;;20.23;17.77;;;4.70;85.00;;;;;;5531982;25;20693;-60
2024/04/18 01:34:45;;;;;;;23.70;19.73;;;4.60;67.60;;;;;;5531467;25;20459;-60
2024/04/18 01:37:14;;;;;;;23.10;19.30;;;4.70;98.40;;;;;;5531164;25;20905;-60
2024/04/18 01:39:40;;;;;;;27.40;21.23;;;4.70;99.90;;;;;;5532157;25;20372;-60
2024/04/18 01:42:11;;;;;;;25.73;21.53;;;4.70;99.90;;;;;;5531719;25;20452;-60
2024/04/18 01:44:37;;;;;;;25.77;20.93;;;4.70;99.90;;;;;;5531776;25;20451;-60
2024/04/18 01:47:37;;;;;;;26.70;21.33;;;4.70;99.90;;;;;;5531450;25;20396;-60
2024/04/18 01:50:04;;;;;;;25.67;22.77;;;4.70;99.90;;;;;;5531856;25;20388;-60
2024/04/18 01:52:32;;;;;;;24.97;21.77;;;4.70;99.90;;;;;;5531719;25;20399;-60
2024/04/18 01:54:59;;;;;;;24.57;20.13;;;4.70;99.90;;;;;;5531624;25;20436;-60
2024/04/18 01:57:28;;;;;;;25.67;21.50;;;4.70;99.90;;;;;;5531334;25;20471;-60
2024/04/18 01:59:54;;;;;;;27.00;21.13;;;4.70;99.90;;;;;;5531365;25;20498;-61
2024/04/18 02:02:23;;;;;;;24.30;21.40;;;4.60;99.90;;;;;;5531512;25;20817;-60
2024/04/18 02:04:52;;;;;;;27.30;22.47;;;4.60;99.90;;;;;;5531117;25;20486;-60
2024/04/18 02:07:21;;;;;;;23.60;20.87;;;4.70;99.90;;;;;;5531118;25;20447;-60
2024/04/18 02:09:47;;;;;;;27.20;19.60;;;4.70;99.90;;;;;;5531314;25;20804;-59
2024/04/18 02:12:16;;;;;;;23.60;20.23;;;4.70;99.90;;;;;;5531439;25;20917;-60
2024/04/18 02:14:43;;;;;;;25.17;20.80;;;4.70;99.90;;;;;;5531071;25;20502;-60
2024/04/18 02:17:12;;;;;;;23.27;18.53;;;4.70;99.90;;;;;;5531015;25;20822;-60
2024/04/18 02:19:38;;;;;;;21.97;19.10;;;4.80;99.90;;;;;;5531117;25;20448;-59
2024/04/18 02:22:09;;;;;;;21.93;19.60;;;4.70;99.90;;;;;;5531088;25;20781;-60
2024/04/18 02:24:58;;;;;;;20.77;18.57;;;4.70;99.90;;;;;;5530981;25;20461;-59
2024/04/18 02:27:27;;;;;;;22.20;19.43;;;4.70;99.90;;;;;;5530581;25;20517;-60
2024/04/18 02:29:53;;;;;;;20.00;17.53;;;4.70;99.90;;;;;;5531060;25;20815;-60
2024/04/18 02:32:22;;;;;;;20.27;17.50;;;4.70;99.90;;;;;;5531091;25;20454;-60
2024/04/18 02:34:48;;;;;;;19.27;17.17;;;4.60;99.90;;;;;;5529549;25;20392;-60
2024/04/18 02:37:19;;;;;;;19.90;17.43;;;4.70;99.90;;;;;;5530288;25;20416;-60
2024/04/18 02:39:46;;;;;;;24.83;17.13;;;4.60;99.90;;;;;;5530602;25;20458;-59
2024/04/18 02:42:16;;;;;;;19.00;17.00;;;4.60;99.90;;;;;;5530881;25;20735;-63
2024/04/18 02:44:42;;;;;;;16.40;14.60;;;4.60;99.90;;;;;;5530512;25;20530;-61
2024/04/18 02:47:11;;;;;;;18.47;15.70;;;4.60;99.90;;;;;;5530559;25;20469;-62
2024/04/18 02:49:37;;;;;;;14.20;12.37;;;4.60;99.90;;;;;;5530689;25;20377;-60
2024/04/18 02:52:07;;;;;;;12.60;11.30;;;4.50;99.90;;;;;;5531039;25;20365;-61
2024/04/18 02:54:36;;;;;;;12.40;11.10;;;4.40;99.90;;;;;;5530651;25;20503;-61
2024/04/18 02:57:05;;;;;;;11.90;10.70;;;4.50;99.90;;;;;;5530460;25;20444;-62
2024/04/18 02:59:31;;;;;;;13.43;10.10;;;4.40;99.90;;;;;;5530508;25;20448;-62
2024/04/18 03:02:03;;;;;;;12.10;10.30;;;4.40;99.90;;;;;;5530583;25;20458;-62
2024/04/18 03:04:32;;;;;;;12.33;11.13;;;4.50;99.90;;;;;;5530557;25;20396;-62
2024/04/18 03:06:59;;;;;;;13.03;11.67;;;4.50;99.90;;;;;;5530614;25;20441;-62
2024/04/18 03:09:27;;;;;;;12.10;10.57;;;4.40;99.90;;;;;;5530448;25;20451;-62
2024/04/18 03:11:56;;;;;;;12.57;11.27;;;4.50;94.70;;;;;;5530064;25;20391;-61
2024/04/18 03:14:25;;;;;;;13.50;12.10;;;4.50;95.70;;;;;;5530155;25;20407;-63
2024/04/18 03:16:52;;;;;;;13.97;12.47;;;4.60;99.90;;;;;;5530414;25;20817;-62
2024/04/18 03:19:21;;;;;;;11.53;10.33;;;4.50;99.90;;;;;;5530463;25;20501;-62
2024/04/18 03:21:47;;;;;;;12.90;11.60;;;4.60;99.90;;;;;;5529992;25;20471;-62
2024/04/18 03:24:20;;;;;;;13.90;12.10;;;4.50;99.90;;;;;;5530126;25;20450;-62
2024/04/18 03:26:47;;;;;;;13.17;11.77;;;4.50;99.90;;;;;;5530210;25;20736;-63
2024/04/18 03:29:18;;;;;;;12.27;10.77;;;4.50;99.90;;;;;;5530159;25;20506;-61
2024/04/18 03:31:47;;;;;;;14.00;10.73;;;4.50;99.90;;;;;;5530086;25;20442;-62
2024/04/18 03:34:16;;;;;;;18.07;10.83;;;4.40;99.90;;;;;;5530052;25;20490;-61
2024/04/18 03:36:47;;;;;;;12.50;11.20;;;4.40;99.90;;;;;;5529584;25;20467;-61
2024/04/18 03:39:16;;;;;;;12.30;10.20;;;4.40;99.90;;;;;;5530094;25;20431;-63
2024/04/18 03:41:45;;;;;;;13.30;11.40;;;4.40;99.90;;;;;;5529520;25;20400;-61
2024/04/18 03:44:11;;;;;;;11.97;10.70;;;4.40;99.90;;;;;;5529587;25;20507;-61
2024/04/18 03:46:43;;;;;;;11.90;10.60;;;4.40;99.90;;;;;;5529802;25;20521;-60
2024/04/18 03:49:12;;;;;;;13.27;11.13;;;4.40;99.90;;;;;;5529844;25;20560;-60
2024/04/18 03:51:38;;;;;;;10.57;9.57;;;4.40;99.90;;;;;;5530039;25;20454;-61
2024/04/18 03:54:07;;;;;;;9.30;8.40;;;4.40;99.90;;;;;;5530052;25;20539;-61
2024/04/18 03:56:35;;;;;;;11.03;9.13;;;4.30;99.90;;;;;;5526654;25;20471;-60
2024/04/18 03:59:04;;;;;;;13.03;8.93;;;4.30;99.90;;;;;;5528663;25;20562;-59
2024/04/18 04:01:30;;;;;;;9.97;8.83;;;4.40;99.90;;;;;;5529430;25;20485;-60
2024/04/18 04:04:01;;;;;;;9.77;8.60;;;4.30;99.90;;;;;;5529466;25;20396;-60
2024/04/18 04:06:27;;;;;;;9.30;8.40;;;4.30;99.90;;;;;;5527985;25;20400;-59
2024/04/18 04:08:57;;;;;;;9.77;8.00;;;4.40;99.90;;;;;;5528430;25;20436;-60
2024/04/18 04:11:23;;;;;;;8.87;7.93;;;4.40;99.90;;;;;;5529817;25;20396;-60
2024/04/18 04:13:52;;;;;;;12.80;9.97;;;4.40;99.90;;;;;;5529250;25;20572;-61
2024/04/18 04:16:19;;;;;;;9.07;8.17;;;4.40;99.90;;;;;;5529331;25;20451;-60
2024/04/18 04:18:50;;;;;;;11.63;9.53;;;4.50;99.90;;;;;;5529330;25;20464;-61
2024/04/18 04:21:19;;;;;;;8.83;7.90;;;4.40;98.00;;;;;;5529345;25;20503;-61
2024/04/18 04:23:48;;;;;;;10.80;8.50;;;4.50;99.90;;;;;;5528891;25;20455;-61
2024/04/18 04:26:14;;;;;;;11.70;9.00;;;4.50;99.90;;;;;;5529013;25;20452;-62
2024/04/18 04:28:43;;;;;;;9.77;8.77;;;4.40;99.90;;;;;;5528733;25;20451;-62
2024/04/18 04:31:10;;;;;;;15.10;9.50;;;4.40;96.50;;;;;;5529089;25;20499;-62
2024/04/18 04:33:38;;;;;;;10.33;8.93;;;4.40;99.90;;;;;;5529145;25;20782;-62
2024/04/18 04:36:05;;;;;;;11.77;9.47;;;4.50;99.90;;;;;;5528707;25;20475;-62
2024/04/18 04:38:38;;;;;;;11.07;9.73;;;4.50;99.90;;;;;;5529099;25;20562;-62
2024/04/18 04:41:05;;;;;;;10.30;9.17;;;4.50;44.70;;;;;;5529121;25;20431;-62
2024/04/18 04:43:34;;;;;;;13.80;11.37;;;4.50;99.90;;;;;;5528828;25;20388;-62
2024/04/18 04:46:00;;;;;;;12.53;11.23;;;4.50;99.90;;;;;;5528498;25;20451;-62
2024/04/18 04:48:29;;;;;;;14.33;11.20;;;4.50;99.90;;;;;;5528278;25;20454;-62
2024/04/18 04:50:57;;;;;;;16.10;10.10;;;4.60;99.90;;;;;;5528805;25;20451;-61
2024/04/18 04:53:26;;;;;;;13.03;10.67;;;4.60;99.90;;;;;;5528838;25;20781;-62
2024/04/18 04:55:55;;;;;;;13.80;11.20;;;4.60;99.90;;;;;;5527938;25;20522;-61
2024/04/18 04:58:24;;;;;;;13.00;10.60;;;4.50;54.10;;;;;;5528101;25;20460;-61
2024/04/18 05:00:53;;;;;;;11.57;10.47;;;4.50;99.90;;;;;;5528694;25;20432;-62
2024/04/18 05:03:22;;;;;;;12.53;10.63;;;4.50;99.90;;;;;;5528244;25;20912;-61
2024/04/18 05:05:49;;;;;;;12.70;10.47;;;4.50;1.00;;;;;;5528395;25;20502;-61
2024/04/18 05:08:18;;;;;;;14.30;10.70;;;4.60;1.00;;;;;;5528347;25;20495;-61
2024/04/18 05:10:45;;;;;;;11.50;10.33;;;4.60;1.00;;;;;;5528413;25;20389;-61
2024/04/18 05:13:18;;;;;;;12.83;10.57;;;4.60;1.00;;;;;;5528223;25;20828;-61
2024/04/18 05:15:44;;;;;;;13.00;10.30;;;4.70;1.00;;;;;;5527894;25;20961;-61
2024/04/18 05:18:15;;;;;;;12.47;10.80;;;4.80;1.00;;;;;;5528079;25;20466;-61
2024/04/18 05:20:41;;;;;;;14.90;12.07;;;4.80;1.00;;;;;;5528315;25;20397;-61
2024/04/18 05:23:10;;;;;;;13.63;11.07;;;4.80;1.00;;;;;;5528172;25;20457;-60
2024/04/18 05:25:37;;;;;;;11.90;9.80;;;4.90;1.00;;;;;;5528316;25;20403;-61
2024/04/18 05:28:10;;;;;;;17.80;10.83;;;4.80;1.00;;;;;;5527960;25;20511;-61
2024/04/18 05:33:29;;;;;;;10.10;8.40;;;4.90;99.90;;;;;;5530926;26;20548;-61
2024/04/18 05:35:58;;;;;;;9.50;8.40;;;4.90;99.90;;;;;;5527728;25;20454;-60
2024/04/18 05:38:27;;;;;;;11.40;8.33;;;4.90;99.90;;;;;;5527574;25;20462;-61
2024/04/18 05:40:56;;;;;;;10.53;8.40;;;4.80;1.00;;;;;;5528049;25;20459;-61
2024/04/18 05:43:25;;;;;;;13.20;8.40;;;4.80;1.00;;;;;;5527851;25;20485;-61
2024/04/18 05:45:56;;;;;;;13.13;8.70;;;4.90;1.00;;;;;;5527777;25;20495;-61
2024/04/18 05:48:25;;;;;;;10.80;8.90;;;4.90;1.00;;;;;;5527209;25;20376;-61
2024/04/18 05:50:54;;;;;;;14.00;8.80;;;4.90;1.00;;;;;;5527011;25;20396;-60
2024/04/18 05:53:23;;;;;;;14.77;9.90;;;5.00;1.00;;;;;;5527800;25;20447;-62
2024/04/18 05:55:52;;;;;;;12.30;8.87;;;4.90;1.00;;;;;;5527342;25;20529;-61
2024/04/18 05:58:21;;;;;;;15.27;9.63;;;4.80;99.90;;;;;;5527392;25;20526;-61
2024/04/18 06:00:50;;;;;;;11.37;9.17;;;4.90;1.00;;;;;;5527529;25;20392;-60
2024/04/18 06:03:22;;;;;;;14.10;9.90;;;4.90;99.90;;;;;;5527587;25;20967;-63
2024/04/18 06:05:51;;;;;;;11.60;9.80;;;5.00;99.90;;;;;;5527583;25;20560;-62
2024/04/18 06:08:21;;;;;;;11.47;9.93;;;5.10;99.90;;;;;;5527469;25;20451;-63
2024/04/18 06:10:50;;;;;;;10.63;8.30;;;5.20;99.90;;;;;;5531452;25;20486;-63
2024/04/18 06:13:20;;;;;;;14.37;9.40;;;5.20;99.90;;;;;;5531938;25;20762;-63
2024/04/18 06:15:50;;;;;;;10.20;9.00;;;5.20;1.00;;;;;;5531165;25;20472;-63
2024/04/18 06:18:22;;;;;;;15.00;8.80;;;5.20;1.00;;;;;;5531014;25;20458;-62
2024/04/18 06:20:52;;;;;;;17.40;9.00;;;5.20;99.90;;;;;;5531145;25;20562;-63
2024/04/18 06:23:21;;;;;;;13.13;9.20;;;5.30;1.00;;;;;;5531169;25;20458;-63
2024/04/18 06:25:48;;;;;;;12.50;9.27;;;5.40;99.90;;;;;;5530758;25;20907;-63
2024/04/18 06:28:17;;;;;;;9.90;8.70;;;5.50;99.90;;;;;;5530759;25;20571;-63
2024/04/18 06:30:47;;;;;;;10.37;8.27;;;5.70;99.90;;;;;;5530895;25;20451;-62
2024/04/18 06:33:15;;;;;;;10.50;7.67;;;5.60;1.00;;;;;;5531087;25;20729;-63
2024/04/18 06:35:44;;;;;;;12.90;8.43;;;5.40;99.90;;;;;;5530573;25;20454;-62
2024/04/18 06:38:13;;;;;;;10.03;7.50;;;5.30;99.90;;;;;;5530490;25;20527;-63
2024/04/18 06:40:43;;;;;;;10.83;7.90;;;5.40;99.90;;;;;;5530807;25;20903;-62
2024/04/18 06:43:12;;;;;;;12.50;7.43;;;5.50;99.90;;;;;;5530845;25;20495;-63
2024/04/18 06:45:41;;;;;;;7.37;6.67;;;5.70;99.90;;;;;;5531101;25;20392;-62
2024/04/18 06:48:11;;;;;;;7.57;6.43;;;5.70;99.90;;;;;;5530472;25;20388;-63
2024/04/18 06:50:40;;;;;;;10.57;6.27;;;5.70;99.90;;;;;;5530507;25;20526;-63
2024/04/18 06:53:12;;;;;;;6.93;6.00;;;6.00;99.90;;;;;;5528965;25;20947;-63
2024/04/18 06:55:41;;;;;;;11.00;5.50;;;5.60;99.90;;;;;;5529436;25;20463;-63
2024/04/18 06:58:10;;;;;;;10.80;6.20;;;5.60;1.00;;;;;;5528697;25;20388;-63
2024/04/18 07:00:41;;;;;;;11.73;5.70;;;5.80;1.00;;;;;;5530008;25;20746;-63
2024/04/18 07:03:12;;;;;;;13.70;6.40;;;5.80;99.90;;;;;;5530681;25;20506;-63
2024/04/18 07:05:41;;;;;;;10.13;5.50;;;5.80;99.90;;;;;;5531155;25;20497;-63
2024/04/18 07:08:14;;;;;;;7.30;5.27;;;6.00;1.00;;;;;;5529081;25;20421;-63
2024/04/18 07:10:43;;;;;;;9.10;5.03;;;5.90;99.90;;;;;;5527812;25;20396;-63
2024/04/18 07:13:12;;;;;;;8.80;5.67;;;5.90;99.90;;;;;;5527440;25;20392;-62
2024/04/18 07:15:44;;;;;;;9.70;5.17;;;5.80;1.00;;;;;;5527528;25;20824;-62
2024/04/18 07:18:13;;;;;;;8.80;5.23;;;5.70;23.80;;;;;;5527590;25;20887;-63
2024/04/18 07:20:42;;;;;;;8.97;5.30;;;5.90;99.90;;;;;;5526738;25;20454;-63
2024/04/18 07:23:14;;;;;;;9.30;5.33;;;5.90;99.90;;;;;;5527179;25;20459;-63
2024/04/18 07:25:43;;;;;;;8.33;5.37;;;6.20;99.90;;;;;;5527651;25;20388;-63
2024/04/18 07:28:12;;;;;;;7.07;5.40;;;6.10;99.90;;;;;;5529536;25;20773;-63
2024/04/18 07:30:41;;;;;;;6.33;4.43;;;6.10;1.00;;;;;;5528436;25;20910;-61
2024/04/18 07:33:09;;;;;;;5.23;4.70;;;6.20;28.20;;;;;;5529824;25;20447;-62
2024/04/18 07:35:38;;;;;;;9.40;5.53;;;6.30;99.90;;;;;;5529767;25;20888;-62
2024/04/18 07:38:08;;;;;;;11.57;5.30;;;6.40;99.90;;;;;;5528594;25;20462;-62
2024/04/18 07:40:39;;;;;;;12.60;5.60;;;6.60;99.90;;;;;;5529832;25;20757;-61
2024/04/18 07:43:08;;;;;;;8.00;4.20;;;6.60;1.00;;;;;;5529475;25;20722;-62
2024/04/18 07:45:38;;;;;;;7.57;4.60;;;6.60;1.00;;;;;;5529877;25;20540;-61
2024/04/18 07:48:08;;;;;;;13.33;5.43;;;6.50;99.90;;;;;;5529305;25;20684;-62
2024/04/18 07:50:37;;;;;;;7.47;4.20;;;6.60;99.90;;;;;;5529343;25;20817;-61
2024/04/18 07:53:06;;;;;;;8.40;4.30;;;6.50;99.90;;;;;;5529735;25;20428;-61
2024/04/18 07:55:35;;;;;;;10.60;4.57;;;6.70;99.90;;;;;;5529748;25;20501;-61
2024/04/18 07:58:07;;;;;;;8.23;4.70;;;6.70;99.90;;;;;;5529725;25;20495;-61
2024/04/18 08:00:36;;;;;;;9.00;4.37;;;6.80;99.90;;;;;;5529442;25;20448;-61
2024/04/18 08:03:05;;;;;;;6.20;4.60;;;6.70;1.00;;;;;;5529084;25;20888;-61
2024/04/18 08:05:31;;;;;;;8.53;4.10;;;6.80;99.90;;;;;;5528726;25;20467;-61
2024/04/18 08:08:00;;;;;;;8.93;4.90;;;7.00;99.90;;;;;;5527223;25;20467;-62
2024/04/18 08:10:29;;;;;;;10.70;4.80;;;7.00;3.00;;;;;;5526776;25;20400;-61
2024/04/18 08:12:58;;;;;;;6.83;3.60;;;7.10;99.90;;;;;;5528173;25;20780;-61
2024/04/18 08:15:30;;;;;;;8.70;4.17;;;7.20;99.90;;;;;;5528419;25;20590;-61
2024/04/18 08:17:59;;;;;;;10.27;3.57;;;7.10;1.00;;;;;;5529175;25;20491;-61
2024/04/18 08:20:25;;;;;;;11.70;5.03;;;6.80;99.90;;;;;;5529244;25;20518;-60
2024/04/18 08:22:54;;;;;;;6.70;4.37;;;6.70;1.00;;;;;;5529333;25;20534;-61
2024/04/18 08:25:24;;;;;;;8.40;3.97;;;6.90;1.00;;;;;;5528940;25;20444;-61
2024/04/18 08:27:53;;;;;;;9.00;3.57;;;7.00;7.80;;;;;;5529185;25;20931;-60
2024/04/18 08:30:24;;;;;;;5.70;3.43;;;7.30;1.00;;;;;;5529261;25;20554;-60
2024/04/18 08:32:56;;;;;;;6.77;3.27;;;7.70;1.00;;;;;;5527703;25;20550;-60
2024/04/18 08:35:25;;;;;;;6.23;3.67;;;7.90;99.90;;;;;;5528640;25;20395;-60
2024/04/18 08:37:54;;;;;;;9.70;4.03;;;8.00;1.00;;;;;;5528632;25;20463;-60
2024/04/18 08:40:23;;;;;;;6.90;3.70;;;8.10;1.00;;;;;;5528793;25;20396;-60
2024/04/18 08:42:52;;;;;;;7.50;3.40;;;8.40;13.60;;;;;;5528732;25;20829;-59
2024/04/18 08:45:27;;;;;;;9.13;3.63;;;8.80;99.90;;;;;;5528920;25;20514;-60
2024/04/18 08:48:00;;;;;;;7.40;3.63;;;9.30;99.90;;;;;;5528711;25;20443;-59
2024/04/18 08:50:31;;;;;;;11.03;4.03;;;8.80;99.90;;;;;;5527721;25;20444;-60
2024/04/18 08:53:02;;;;;;;9.37;4.30;;;8.60;99.90;;;;;;5525480;25;20565;-59
2024/04/18 08:55:35;;;;;;;8.60;3.70;;;8.40;99.90;;;;;;5525368;25;20821;-60
2024/04/18 08:58:07;;;;;;;8.17;4.07;;;8.20;99.90;;;;;;5525661;25;20730;-60
2024/04/18 09:00:36;;;;;;;7.80;5.40;;;8.20;1.00;;;;;;5524927;25;20384;-59
2024/04/18 09:03:08;;;;;;;10.70;4.63;;;8.30;1.00;;;;;;5525828;25;20817;-60
2024/04/18 09:05:37;;;;;;;6.50;3.53;;;8.70;99.90;;;;;;5526373;25;20503;-59
2024/04/18 09:08:09;;;;;;;6.33;3.30;;;8.60;99.90;;;;;;5528431;25;20446;-60
2024/04/18 09:10:36;;;;;;;9.27;3.80;;;8.90;1.00;;;;;;5528264;25;20458;-59
2024/04/18 09:13:05;;;;;;;11.90;3.57;;;8.80;99.90;;;;;;5528132;25;20458;-59
2024/04/18 09:15:34;;;;;;;9.83;5.13;;;8.90;99.90;;;;;;5528536;25;20499;-59
2024/04/18 09:18:03;;;;;;;5.80;4.37;;;9.00;1.00;;;;;;5528513;25;20451;-58
2024/04/18 09:20:36;;;;;;;4.73;3.37;;;9.00;84.90;;;;;;5528224;25;20534;-59
2024/04/18 09:23:06;;;;;;;6.53;4.10;;;9.40;96.10;;;;;;5528427;25;20451;-60
2024/04/18 09:25:36;;;;;;;5.53;2.90;;;10.40;99.90;;;;;;5528287;25;20932;-60
2024/04/18 09:28:05;;;;;;;7.93;3.17;;;10.20;99.90;;;;;;5527901;25;20459;-59
2024/04/18 09:30:35;;;;;;;6.50;3.97;;;10.00;99.90;;;;;;5527889;25;20451;-60
2024/04/18 09:33:04;;;;;;;6.60;3.80;;;9.70;99.90;;;;;;5528095;25;20455;-60
2024/04/18 09:35:38;;;;;;;7.93;3.57;;;9.50;99.90;;;;;;5528117;25;20814;-60
2024/04/18 09:38:11;;;;;;;6.40;3.30;;;8.90;99.90;;;;;;5527442;25;20459;-60
2024/04/18 09:40:45;;;;;;;6.30;3.27;;;8.90;99.90;;;;;;5527737;25;20597;-60
2024/04/18 09:43:23;;;;;;;5.53;3.67;;;8.80;99.90;;;;;;5529311;25;20442;-60
2024/04/18 09:46:03;;;;;;;7.60;3.83;;;8.70;99.90;;;;;;5531218;25;20529;-60
2024/04/18 09:48:33;;;;;;;5.27;3.77;;;8.50;1.00;;;;;;5530377;25;20660;-60
2024/04/18 09:51:05;;;;;;;8.50;3.90;;;8.60;99.90;;;;;;5529979;25;20490;-60
2024/04/18 09:53:35;;;;;;;5.70;3.27;;;8.90;99.90;;;;;;5531610;25;20510;-60
2024/04/18 09:56:05;;;;;;;8.70;3.53;;;9.40;99.90;;;;;;5531167;25;20438;-60
2024/04/18 09:58:36;;;;;;;5.40;3.10;;;10.10;1.00;;;;;;5531179;25;20447;-60
2024/04/18 10:01:05;;;;;;;7.00;3.70;;;10.00;1.00;;;;;;5531238;25;20517;-59
2024/04/18 10:03:34;;;;;;;6.63;3.30;;;8.90;1.00;;;;;;5530886;25;20828;-59
2024/04/18 10:06:11;;;;;;;7.93;3.90;;;8.50;45.80;;;;;;5530973;25;20450;-59
2024/04/18 10:08:46;;;;;;;7.40;3.70;;;8.40;99.90;;;;;;5530066;25;20443;-59
2024/04/18 10:11:17;;;;;;;6.93;3.93;;;8.50;99.90;;;;;;5528146;25;20681;-59
2024/04/18 10:13:49;;;;;;;7.33;3.50;;;8.60;99.90;;;;;;5527715;25;20558;-60
2024/04/18 10:16:19;;;;;;;4.57;2.93;;;9.80;1.00;;;;;;5527773;25;20518;-60
2024/04/18 10:18:48;;;;;;;6.53;3.30;;;10.70;99.90;;;;;;5527304;25;20436;-61
2024/04/18 10:21:28;;;;;;;5.73;2.93;;;10.60;99.90;;;;;;5527830;25;20466;-59
2024/04/18 10:24:04;;;;;;;4.53;2.97;;;10.10;1.00;;;;;;5526243;25;20510;-59
2024/04/18 10:26:39;;;;;;;5.20;2.40;;;9.80;1.00;;;;;;5527717;25;20454;-59
2024/04/18 10:29:23;;;;;;;7.50;3.60;;;10.10;99.90;;;;;;5528566;25;20903;-60
2024/04/18 10:31:56;;;;;;;5.40;2.90;;;9.60;99.90;;;;;;5528024;25;20459;-59
2024/04/18 10:34:28;;;;;;;6.70;3.10;;;9.60;1.00;;;;;;5527891;25;20572;-60
2024/04/18 10:37:08;;;;;;;7.00;2.70;;;10.10;51.00;;;;;;5527269;25;20471;-59
2024/04/18 10:39:38;;;;;;;3.90;2.40;;;10.50;1.00;;;;;;5528569;25;20782;-59
2024/04/18 10:42:07;;;;;;;8.00;2.50;;;10.90;1.00;;;;;;5529590;25;20454;-59
2024/04/18 10:44:36;;;;;;;6.57;2.47;;;11.50;1.00;;;;;;5529845;25;20458;-59
2024/04/18 10:47:04;;;;;;;4.50;2.97;;;11.00;1.00;;;;;;5530040;25;21002;-59
2024/04/18 10:49:33;;;;;;;4.70;2.80;;;11.70;1.00;;;;;;5527797;25;20691;-59
2024/04/18 10:52:08;;;;;;;4.20;3.20;;;11.80;1.00;;;;;;5525736;25;20454;-59
2024/04/18 10:54:38;;;;;;;4.70;2.77;;;12.00;1.00;;;;;;5526203;25;20454;-59
2024/04/18 10:57:07;;;;;;;4.80;2.37;;;12.00;1.00;;;;;;5527687;25;20463;-59
2024/04/18 10:59:43;;;;;;;4.57;3.30;;;12.00;99.90;;;;;;5526854;25;20392;-59
2024/04/18 11:02:13;;;;;;;5.40;3.20;;;12.90;1.00;;;;;;5527307;25;20450;-58
2024/04/18 11:04:43;;;;;;;4.40;2.80;;;13.40;1.00;;;;;;5527717;25;20499;-59
2024/04/18 11:07:14;;;;;;;5.50;3.07;;;14.20;99.90;;;;;;5529381;25;20455;-59
2024/04/18 11:09:43;;;;;;;8.87;2.77;;;14.60;95.80;;;;;;5528806;25;20471;-59
2024/04/18 11:12:14;;;;;;;5.13;3.07;;;15.30;99.90;;;;;;5529798;25;20500;-58
2024/04/18 11:14:44;;;;;;;5.43;2.70;;;14.70;99.90;;;;;;5527665;25;20489;-59
2024/04/18 11:17:13;;;;;;;7.90;3.20;;;14.70;99.90;;;;;;5526698;25;20492;-59
2024/04/18 11:19:42;;;;;;;4.90;3.27;;;15.00;1.00;;;;;;5525731;25;20847;-59
2024/04/18 11:22:17;;;;;;;4.20;2.37;;;15.70;23.60;;;;;;5496050;25;20975;-58
2024/04/18 11:24:47;;;;;;;3.93;2.40;;;16.00;99.90;;;;;;5490348;26;20463;-59
2024/04/18 11:27:16;;;;;;;3.17;2.70;;;14.80;27.20;;;;;;5489041;26;20453;-59
2024/04/18 11:29:48;;;;;;;4.80;2.67;;;14.80;1.00;;;;;;5486568;26;20460;-59
2024/04/18 11:32:17;;;;;;;4.17;2.90;;;13.20;1.00;;;;;;5488165;26;20779;-58
2024/04/18 11:34:47;;;;;;;3.70;3.23;;;11.60;1.00;;;;;;5487850;26;20512;-59
2024/04/18 11:37:19;;;;;;;5.67;2.90;;;11.10;8.00;;;;;;5487478;26;20752;-59
2024/04/18 11:39:48;;;;;;;3.70;2.37;;;11.10;2.40;;;;;;5488206;26;20565;-59
2024/04/18 11:42:17;;;;;;;4.30;3.00;;;11.50;99.90;;;;;;5489257;26;20771;-59
2024/04/18 11:44:47;;;;;;;4.03;2.23;;;11.80;1.00;;;;;;5491141;26;20501;-58
2024/04/18 11:47:17;;;;;;;4.00;2.00;;;12.90;99.90;;;;;;5491908;26;20480;-58
2024/04/18 11:49:47;;;;;;;3.40;2.17;;;14.40;1.00;;;;;;5493103;26;20798;-58
2024/04/18 11:52:19;;;;;;;3.50;2.43;;;15.00;99.90;;;;;;5492604;26;20980;-58
2024/04/18 11:54:48;;;;;;;4.67;2.33;;;14.50;1.00;;;;;;5492825;26;20523;-57
2024/04/18 11:57:17;;;;;;;3.60;2.20;;;14.00;1.00;;;;;;5509545;26;20813;-57
2024/04/18 11:59:46;;;;;;;2.63;1.87;;;14.60;1.00;;;;;;5515011;25;20474;-59
2024/04/18 12:02:15;;;;;;;2.50;1.73;;;15.00;1.00;;;;;;5511370;26;20519;-59
2024/04/18 12:04:44;;;;;;;3.37;2.40;;;16.10;99.90;;;;;;5526394;25;20459;-59
2024/04/18 12:07:11;;;;;;;3.57;1.90;;;16.70;1.00;;;;;;5526391;25;20557;-59
2024/04/18 12:09:45;;;;;;;3.00;1.80;;;16.50;99.90;;;;;;5494881;25;20536;-58
2024/04/18 12:12:14;;;;;;;7.70;2.50;;;15.60;99.90;;;;;;5489416;26;20830;-59
2024/04/18 12:14:46;;;;;;;3.73;2.07;;;13.50;1.00;;;;;;5489337;26;20495;-58
2024/04/18 12:17:16;;;;;;;3.93;2.10;;;13.10;1.00;;;;;;5491455;26;20448;-58
2024/04/18 12:19:45;;;;;;;2.77;2.10;;;12.50;1.00;;;;;;5520832;26;20958;-58
2024/04/18 12:22:16;;;;;;;3.03;2.43;;;13.00;1.00;;;;;;5523055;25;20559;-59
2024/04/18 12:24:48;;;;;;;5.10;2.10;;;13.20;1.00;;;;;;5522264;25;20470;-58
2024/04/18 12:27:17;;;;;;;3.50;2.17;;;12.10;1.00;;;;;;5523986;25;20513;-59
2024/04/18 12:29:46;;;;;;;4.00;2.33;;;11.50;1.00;;;;;;5491491;26;20448;-59
2024/04/18 12:32:17;;;;;;;2.70;1.90;;;11.80;1.00;;;;;;5491735;26;20460;-57
2024/04/18 12:34:46;;;;;;;2.47;2.03;;;12.10;1.00;;;;;;5498739;26;20568;-58
2024/04/18 12:37:15;;;;;;;3.70;2.10;;;12.90;1.00;;;;;;5490268;26;20829;-58
2024/04/18 12:39:48;;;;;;;3.20;1.77;;;13.20;1.00;;;;;;5492054;26;20439;-58
2024/04/18 12:42:18;;;;;;;4.20;2.40;;;12.60;1.00;;;;;;5491889;26;20440;-59
2024/04/18 12:44:47;;;;;;;4.63;2.00;;;13.00;1.00;;;;;;5492050;26;20498;-59
2024/04/18 12:47:17;;;;;;;2.90;1.57;;;13.40;1.00;;;;;;5492437;26;20846;-59
2024/04/18 12:49:46;;;;;;;3.70;2.30;;;14.50;1.00;;;;;;5491683;26;20620;-58
2024/04/18 12:52:16;;;;;;;3.10;2.53;;;15.10;25.10;;;;;;5489902;26;20566;-58
2024/04/18 12:54:48;;;;;;;4.57;1.93;;;13.90;99.90;;;;;;5488947;26;20424;-60
2024/04/18 12:57:17;;;;;;;4.37;2.23;;;13.20;1.00;;;;;;5489418;26;20569;-58
2024/04/18 12:59:46;;;;;;;2.40;1.93;;;12.60;1.00;;;;;;5489473;26;20505;-58
2024/04/18 13:02:16;;;;;;;3.97;2.27;;;12.90;1.00;;;;;;5490531;26;20393;-59
2024/04/18 13:04:47;;;;;;;5.20;2.40;;;12.80;1.00;;;;;;5491029;26;20460;-59
2024/04/18 13:07:16;;;;;;;3.10;2.00;;;12.80;1.00;;;;;;5491514;26;20504;-58